sensor_id;sensor_type;location;lat;lon;timestamp;P1;durP1;ratioP1;P2;durP2;ratioP2
39294;SDS011;52361;52.100;5.248;2023-05-07T00:02:34;12.9;;;6.8;;
39294;SDS011;52361;52.100;5.248;2023-05-07T00:04:10;11.2;;;6.1;;
39294;SDS011;52361;52.100;5.248;2023-05-07T00:05:46;11.0;;;7.0;;
39294;SDS011;52361;52.100;5.248;2023-05-07T00:08:59;7.1;;;5.7;;
39294;SDS011;52361;52.100;5.248;2023-05-07T00:10:35;10.4;;;6.5;;
39294;SDS011;52361;52.100;5.248;2023-05-07T00:12:11;8.81;;;6.3;;
39294;SDS011;52361;52.100;5.248;2023-05-07T00:15:24;8.0;;;5.5;;
39294;SDS011;52361;52.100;5.248;2023-05-07T00:17:01;12.6;;;6.9;;
39294;SDS011;52361;52.100;5.248;2023-05-07T00:18:38;9.1;;;6.0;;
39294;SDS011;52361;52.100;5.248;2023-05-07T00:20:15;8.81;;;5.8;;
39294;SDS011;52361;52.100;5.248;2023-05-07T00:23:27;7.6;;;5.0;;
39294;SDS011;52361;52.100;5.248;2023-05-07T00:25:03;14.0;;;6.5;;
39294;SDS011;52361;52.100;5.248;2023-05-07T00:26:40;8.6;;;5.2;;
39294;SDS011;52361;52.100;5.248;2023-05-07T00:29:54;8.1;;;5.3;;
39294;SDS011;52361;52.100;5.248;2023-05-07T00:31:32;7.9;;;5.2;;
39294;SDS011;52361;52.100;5.248;2023-05-07T00:33:08;7.0;;;4.8;;
39294;SDS011;52361;52.100;5.248;2023-05-07T00:34:44;7.6;;;5.0;;
39294;SDS011;52361;52.100;5.248;2023-05-07T00:37:57;11.9;;;5.6;;
39294;SDS011;52361;52.100;5.248;2023-05-07T00:39:33;13.4;;;5.7;;
39294;SDS011;52361;52.100;5.248;2023-05-07T00:41:10;8.1;;;5.0;;
39294;SDS011;52361;52.100;5.248;2023-05-07T00:44:24;8.81;;;5.2;;
39294;SDS011;52361;52.100;5.248;2023-05-07T00:46:00;10.7;;;5.6;;
39294;SDS011;52361;52.100;5.248;2023-05-07T00:47:37;8.5;;;6.2;;
39294;SDS011;52361;52.100;5.248;2023-05-07T00:50:51;10.4;;;5.2;;
39294;SDS011;52361;52.100;5.248;2023-05-07T00:52:28;7.7;;;5.2;;
39294;SDS011;52361;52.100;5.248;2023-05-07T00:54:05;8.2;;;5.4;;
39294;SDS011;52361;52.100;5.248;2023-05-07T00:55:43;7.8;;;5.11;;
39294;SDS011;52361;52.100;5.248;2023-05-07T00:58:57;6.9;;;4.91;;
39294;SDS011;52361;52.100;5.248;2023-05-07T01:00:33;7.4;;;4.91;;
39294;SDS011;52361;52.100;5.248;2023-05-07T01:02:09;6.1;;;5.2;;
39294;SDS011;52361;52.100;5.248;2023-05-07T01:05:23;8.2;;;5.0;;
39294;SDS011;52361;52.100;5.248;2023-05-07T01:07:02;7.0;;;4.7;;
39294;SDS011;52361;52.100;5.248;2023-05-07T01:08:39;7.0;;;5.2;;
39294;SDS011;52361;52.100;5.248;2023-05-07T01:11:54;6.1;;;4.2;;
39294;SDS011;52361;52.100;5.248;2023-05-07T01:13:32;6.6;;;5.0;;
39294;SDS011;52361;52.100;5.248;2023-05-07T01:15:10;8.2;;;5.2;;
39294;SDS011;52361;52.100;5.248;2023-05-07T01:16:47;7.7;;;5.11;;
39294;SDS011;52361;52.100;5.248;2023-05-07T01:20:02;7.5;;;4.61;;
39294;SDS011;52361;52.100;5.248;2023-05-07T01:21:40;10.6;;;4.7;;
39294;SDS011;52361;52.100;5.248;2023-05-07T01:23:22;7.7;;;5.11;;
39294;SDS011;52361;52.100;5.248;2023-05-07T01:24:59;7.1;;;4.7;;
39294;SDS011;52361;52.100;5.248;2023-05-07T01:28:13;6.2;;;4.61;;
39294;SDS011;52361;52.100;5.248;2023-05-07T01:29:49;7.9;;;4.61;;
39294;SDS011;52361;52.100;5.248;2023-05-07T01:31:26;7.3;;;4.8;;
39294;SDS011;52361;52.100;5.248;2023-05-07T01:34:44;7.5;;;4.3;;
39294;SDS011;52361;52.100;5.248;2023-05-07T01:36:24;7.0;;;4.91;;
39294;SDS011;52361;52.100;5.248;2023-05-07T01:38:02;8.4;;;5.11;;
39294;SDS011;52361;52.100;5.248;2023-05-07T01:39:39;9.1;;;5.4;;
39294;SDS011;52361;52.100;5.248;2023-05-07T01:42:54;7.2;;;5.3;;
39294;SDS011;52361;52.100;5.248;2023-05-07T01:44:30;14.6;;;5.5;;
39294;SDS011;52361;52.100;5.248;2023-05-07T01:46:06;8.81;;;5.2;;
39294;SDS011;52361;52.100;5.248;2023-05-07T01:49:20;8.9;;;5.4;;
39294;SDS011;52361;52.100;5.248;2023-05-07T01:50:56;7.6;;;5.8;;
39294;SDS011;52361;52.100;5.248;2023-05-07T01:52:34;9.31;;;5.5;;
39294;SDS011;52361;52.100;5.248;2023-05-07T01:55:48;7.5;;;5.3;;
39294;SDS011;52361;52.100;5.248;2023-05-07T01:57:24;8.5;;;5.7;;
39294;SDS011;52361;52.100;5.248;2023-05-07T01:59:00;10.8;;;5.7;;
39294;SDS011;52361;52.100;5.248;2023-05-07T02:00:36;7.9;;;5.4;;
39294;SDS011;52361;52.100;5.248;2023-05-07T02:03:49;8.81;;;5.0;;
39294;SDS011;52361;52.100;5.248;2023-05-07T02:05:25;6.9;;;5.0;;
39294;SDS011;52361;52.100;5.248;2023-05-07T02:07:02;7.6;;;5.0;;
39294;SDS011;52361;52.100;5.248;2023-05-07T02:10:14;8.5;;;5.5;;
39294;SDS011;52361;52.100;5.248;2023-05-07T02:11:50;8.4;;;5.8;;
39294;SDS011;52361;52.100;5.248;2023-05-07T02:13:28;8.6;;;4.5;;
39294;SDS011;52361;52.100;5.248;2023-05-07T02:16:42;8.0;;;5.4;;
39294;SDS011;52361;52.100;5.248;2023-05-07T02:18:18;7.3;;;5.4;;
39294;SDS011;52361;52.100;5.248;2023-05-07T02:19:55;6.9;;;5.0;;
39294;SDS011;52361;52.100;5.248;2023-05-07T02:21:31;7.8;;;5.0;;
39294;SDS011;52361;52.100;5.248;2023-05-07T02:24:44;8.31;;;5.3;;
39294;SDS011;52361;52.100;5.248;2023-05-07T02:26:20;7.9;;;4.8;;
39294;SDS011;52361;52.100;5.248;2023-05-07T02:27:56;8.81;;;5.3;;
39294;SDS011;52361;52.100;5.248;2023-05-07T02:31:08;7.7;;;5.11;;
39294;SDS011;52361;52.100;5.248;2023-05-07T02:32:45;8.31;;;5.3;;
39294;SDS011;52361;52.100;5.248;2023-05-07T02:34:21;8.71;;;5.0;;
39294;SDS011;52361;52.100;5.248;2023-05-07T02:37:41;9.71;;;5.0;;
39294;SDS011;52361;52.100;5.248;2023-05-07T02:39:17;7.9;;;5.11;;
39294;SDS011;52361;52.100;5.248;2023-05-07T02:40:53;7.4;;;5.4;;
39294;SDS011;52361;52.100;5.248;2023-05-07T02:42:30;8.31;;;4.8;;
39294;SDS011;52361;52.100;5.248;2023-05-07T02:45:44;7.6;;;5.3;;
39294;SDS011;52361;52.100;5.248;2023-05-07T02:47:20;8.4;;;5.3;;
39294;SDS011;52361;52.100;5.248;2023-05-07T02:48:56;10.4;;;4.91;;
39294;SDS011;52361;52.100;5.248;2023-05-07T02:52:08;7.9;;;4.91;;
39294;SDS011;52361;52.100;5.248;2023-05-07T02:53:44;7.7;;;5.2;;
39294;SDS011;52361;52.100;5.248;2023-05-07T02:55:21;7.6;;;5.4;;
39294;SDS011;52361;52.100;5.248;2023-05-07T02:58:33;7.5;;;5.11;;
39294;SDS011;52361;52.100;5.248;2023-05-07T03:00:10;7.9;;;5.7;;
39294;SDS011;52361;52.100;5.248;2023-05-07T03:01:47;11.4;;;4.8;;
39294;SDS011;52361;52.100;5.248;2023-05-07T03:03:24;9.4;;;6.0;;
39294;SDS011;52361;52.100;5.248;2023-05-07T03:06:36;8.9;;;5.11;;
39294;SDS011;52361;52.100;5.248;2023-05-07T03:08:12;8.2;;;5.11;;
39294;SDS011;52361;52.100;5.248;2023-05-07T03:09:48;6.9;;;5.3;;
39294;SDS011;52361;52.100;5.248;2023-05-07T03:13:00;10.4;;;5.9;;
39294;SDS011;52361;52.100;5.248;2023-05-07T03:14:38;9.31;;;5.8;;
39294;SDS011;52361;52.100;5.248;2023-05-07T03:16:14;7.1;;;5.11;;
39294;SDS011;52361;52.100;5.248;2023-05-07T03:19:27;14.0;;;6.3;;
39294;SDS011;52361;52.100;5.248;2023-05-07T03:21:03;8.6;;;6.0;;
39294;SDS011;52361;52.100;5.248;2023-05-07T03:22:39;10.5;;;6.9;;
39294;SDS011;52361;52.100;5.248;2023-05-07T03:24:16;11.0;;;6.0;;
39294;SDS011;52361;52.100;5.248;2023-05-07T03:27:29;8.4;;;6.5;;
39294;SDS011;52361;52.100;5.248;2023-05-07T03:29:05;10.7;;;5.9;;
39294;SDS011;52361;52.100;5.248;2023-05-07T03:30:41;10.0;;;5.4;;
39294;SDS011;52361;52.100;5.248;2023-05-07T03:33:54;9.4;;;6.7;;
39294;SDS011;52361;52.100;5.248;2023-05-07T03:35:31;8.1;;;5.4;;
39294;SDS011;52361;52.100;5.248;2023-05-07T03:37:08;9.71;;;6.2;;
39294;SDS011;52361;52.100;5.248;2023-05-07T03:40:21;9.6;;;6.4;;
39294;SDS011;52361;52.100;5.248;2023-05-07T03:41:57;10.6;;;7.3;;
39294;SDS011;52361;52.100;5.248;2023-05-07T03:43:34;10.21;;;7.0;;
39294;SDS011;52361;52.100;5.248;2023-05-07T03:45:10;12.3;;;6.9;;
39294;SDS011;52361;52.100;5.248;2023-05-07T03:48:23;10.0;;;7.6;;
39294;SDS011;52361;52.100;5.248;2023-05-07T03:49:59;10.5;;;6.4;;
39294;SDS011;52361;52.100;5.248;2023-05-07T03:51:35;10.9;;;7.0;;
39294;SDS011;52361;52.100;5.248;2023-05-07T03:54:48;13.2;;;8.31;;
39294;SDS011;52361;52.100;5.248;2023-05-07T03:56:24;10.3;;;6.6;;
39294;SDS011;52361;52.100;5.248;2023-05-07T03:58:00;14.2;;;7.2;;
39294;SDS011;52361;52.100;5.248;2023-05-07T04:01:13;11.4;;;7.0;;
39294;SDS011;52361;52.100;5.248;2023-05-07T04:02:49;10.7;;;7.4;;
39294;SDS011;52361;52.100;5.248;2023-05-07T04:04:25;12.1;;;6.6;;
39294;SDS011;52361;52.100;5.248;2023-05-07T04:06:01;15.6;;;7.3;;
39294;SDS011;52361;52.100;5.248;2023-05-07T04:09:14;10.4;;;7.5;;
39294;SDS011;52361;52.100;5.248;2023-05-07T04:10:54;12.4;;;8.81;;
39294;SDS011;52361;52.100;5.248;2023-05-07T04:12:31;12.7;;;7.9;;
39294;SDS011;52361;52.100;5.248;2023-05-07T04:15:43;13.6;;;8.31;;
39294;SDS011;52361;52.100;5.248;2023-05-07T04:17:19;12.0;;;8.0;;
39294;SDS011;52361;52.100;5.248;2023-05-07T04:18:55;11.2;;;7.0;;
39294;SDS011;52361;52.100;5.248;2023-05-07T04:22:10;13.5;;;7.1;;
39294;SDS011;52361;52.100;5.248;2023-05-07T04:23:48;12.8;;;7.5;;
39294;SDS011;52361;52.100;5.248;2023-05-07T04:25:25;14.6;;;7.6;;
39294;SDS011;52361;52.100;5.248;2023-05-07T04:27:01;13.2;;;7.5;;
39294;SDS011;52361;52.100;5.248;2023-05-07T04:30:14;12.8;;;8.31;;
39294;SDS011;52361;52.100;5.248;2023-05-07T04:31:50;11.9;;;7.5;;
39294;SDS011;52361;52.100;5.248;2023-05-07T04:33:26;11.4;;;8.1;;
39294;SDS011;52361;52.100;5.248;2023-05-07T04:36:39;11.7;;;6.8;;
39294;SDS011;52361;52.100;5.248;2023-05-07T04:38:17;11.8;;;7.2;;
39294;SDS011;52361;52.100;5.248;2023-05-07T04:39:53;12.4;;;7.2;;
39294;SDS011;52361;52.100;5.248;2023-05-07T04:43:05;12.4;;;7.7;;
39294;SDS011;52361;52.100;5.248;2023-05-07T04:44:41;11.6;;;7.6;;
39294;SDS011;52361;52.100;5.248;2023-05-07T04:46:19;11.9;;;7.6;;
39294;SDS011;52361;52.100;5.248;2023-05-07T04:47:55;11.9;;;7.6;;
39294;SDS011;52361;52.100;5.248;2023-05-07T04:51:08;12.4;;;7.0;;
39294;SDS011;52361;52.100;5.248;2023-05-07T04:52:44;13.3;;;7.5;;
39294;SDS011;52361;52.100;5.248;2023-05-07T04:54:20;11.0;;;7.4;;
39294;SDS011;52361;52.100;5.248;2023-05-07T04:57:33;9.4;;;6.9;;
39294;SDS011;52361;52.100;5.248;2023-05-07T04:59:09;11.8;;;7.5;;
39294;SDS011;52361;52.100;5.248;2023-05-07T05:00:46;12.9;;;8.1;;
39294;SDS011;52361;52.100;5.248;2023-05-07T05:03:58;13.5;;;7.3;;
39294;SDS011;52361;52.100;5.248;2023-05-07T05:05:34;11.1;;;7.1;;
39294;SDS011;52361;52.100;5.248;2023-05-07T05:07:10;11.9;;;8.6;;
39294;SDS011;52361;52.100;5.248;2023-05-07T05:08:46;11.2;;;7.7;;
39294;SDS011;52361;52.100;5.248;2023-05-07T05:11:58;12.3;;;7.7;;
39294;SDS011;52361;52.100;5.248;2023-05-07T05:13:35;14.6;;;8.31;;
39294;SDS011;52361;52.100;5.248;2023-05-07T05:15:11;11.2;;;7.2;;
39294;SDS011;52361;52.100;5.248;2023-05-07T05:18:24;12.8;;;7.3;;
39294;SDS011;52361;52.100;5.248;2023-05-07T05:20:00;12.7;;;7.8;;
39294;SDS011;52361;52.100;5.248;2023-05-07T05:21:36;11.4;;;7.6;;
39294;SDS011;52361;52.100;5.248;2023-05-07T05:24:49;10.9;;;7.9;;
39294;SDS011;52361;52.100;5.248;2023-05-07T05:26:25;15.1;;;7.4;;
39294;SDS011;52361;52.100;5.248;2023-05-07T05:28:01;11.3;;;7.1;;
39294;SDS011;52361;52.100;5.248;2023-05-07T05:31:13;11.6;;;7.7;;
39294;SDS011;52361;52.100;5.248;2023-05-07T05:32:49;13.6;;;8.0;;
39294;SDS011;52361;52.100;5.248;2023-05-07T05:34:25;10.5;;;7.0;;
39294;SDS011;52361;52.100;5.248;2023-05-07T05:36:02;12.8;;;7.1;;
39294;SDS011;52361;52.100;5.248;2023-05-07T05:39:15;11.6;;;7.4;;
39294;SDS011;52361;52.100;5.248;2023-05-07T05:40:53;12.2;;;7.7;;
39294;SDS011;52361;52.100;5.248;2023-05-07T05:42:29;10.0;;;6.8;;
39294;SDS011;52361;52.100;5.248;2023-05-07T05:45:42;11.7;;;7.7;;
39294;SDS011;52361;52.100;5.248;2023-05-07T05:47:18;9.9;;;7.0;;
39294;SDS011;52361;52.100;5.248;2023-05-07T05:48:54;11.9;;;7.0;;
39294;SDS011;52361;52.100;5.248;2023-05-07T05:52:06;14.0;;;7.9;;
39294;SDS011;52361;52.100;5.248;2023-05-07T05:53:42;9.5;;;6.8;;
39294;SDS011;52361;52.100;5.248;2023-05-07T05:55:19;10.0;;;6.6;;
39294;SDS011;52361;52.100;5.248;2023-05-07T05:56:56;10.3;;;6.6;;
39294;SDS011;52361;52.100;5.248;2023-05-07T06:00:09;13.5;;;7.5;;
39294;SDS011;52361;52.100;5.248;2023-05-07T06:01:46;10.6;;;6.9;;
39294;SDS011;52361;52.100;5.248;2023-05-07T06:03:22;11.6;;;7.4;;
39294;SDS011;52361;52.100;5.248;2023-05-07T06:06:34;11.3;;;6.8;;
39294;SDS011;52361;52.100;5.248;2023-05-07T06:08:11;9.81;;;6.3;;
39294;SDS011;52361;52.100;5.248;2023-05-07T06:09:46;12.4;;;6.8;;
39294;SDS011;52361;52.100;5.248;2023-05-07T06:12:59;11.9;;;6.6;;
39294;SDS011;52361;52.100;5.248;2023-05-07T06:14:35;14.4;;;7.3;;
39294;SDS011;52361;52.100;5.248;2023-05-07T06:16:11;11.2;;;6.8;;
39294;SDS011;52361;52.100;5.248;2023-05-07T06:19:25;9.9;;;5.7;;
39294;SDS011;52361;52.100;5.248;2023-05-07T06:21:01;10.4;;;6.4;;
39294;SDS011;52361;52.100;5.248;2023-05-07T06:22:38;12.8;;;6.9;;
39294;SDS011;52361;52.100;5.248;2023-05-07T06:24:14;7.1;;;5.6;;
39294;SDS011;52361;52.100;5.248;2023-05-07T06:27:27;10.6;;;6.5;;
39294;SDS011;52361;52.100;5.248;2023-05-07T06:29:04;14.0;;;5.8;;
39294;SDS011;52361;52.100;5.248;2023-05-07T06:30:40;9.31;;;5.8;;
39294;SDS011;52361;52.100;5.248;2023-05-07T06:33:54;9.4;;;6.2;;
39294;SDS011;52361;52.100;5.248;2023-05-07T06:35:30;10.1;;;7.1;;
39294;SDS011;52361;52.100;5.248;2023-05-07T06:37:07;12.7;;;6.7;;
39294;SDS011;52361;52.100;5.248;2023-05-07T06:40:19;11.0;;;6.3;;
39294;SDS011;52361;52.100;5.248;2023-05-07T06:41:55;10.9;;;6.4;;
39294;SDS011;52361;52.100;5.248;2023-05-07T06:43:32;12.1;;;7.4;;
39294;SDS011;52361;52.100;5.248;2023-05-07T06:45:09;11.2;;;6.7;;
39294;SDS011;52361;52.100;5.248;2023-05-07T06:48:21;12.3;;;6.8;;
39294;SDS011;52361;52.100;5.248;2023-05-07T06:49:58;10.8;;;6.7;;
39294;SDS011;52361;52.100;5.248;2023-05-07T06:51:34;11.3;;;7.0;;
39294;SDS011;52361;52.100;5.248;2023-05-07T06:54:46;8.9;;;6.6;;
39294;SDS011;52361;52.100;5.248;2023-05-07T06:56:22;11.0;;;6.9;;
39294;SDS011;52361;52.100;5.248;2023-05-07T06:57:58;12.3;;;7.3;;
39294;SDS011;52361;52.100;5.248;2023-05-07T07:01:11;10.7;;;6.8;;
39294;SDS011;52361;52.100;5.248;2023-05-07T07:02:48;10.7;;;6.5;;
39294;SDS011;52361;52.100;5.248;2023-05-07T07:04:24;13.0;;;7.5;;
39294;SDS011;52361;52.100;5.248;2023-05-07T07:06:00;11.2;;;6.5;;
39294;SDS011;52361;52.100;5.248;2023-05-07T07:09:12;12.1;;;6.5;;
39294;SDS011;52361;52.100;5.248;2023-05-07T07:10:49;12.1;;;6.9;;
39294;SDS011;52361;52.100;5.248;2023-05-07T07:12:25;11.8;;;7.4;;
39294;SDS011;52361;52.100;5.248;2023-05-07T07:15:37;14.9;;;7.0;;
39294;SDS011;52361;52.100;5.248;2023-05-07T07:17:13;9.21;;;6.4;;
39294;SDS011;52361;52.100;5.248;2023-05-07T07:18:49;9.4;;;6.3;;
39294;SDS011;52361;52.100;5.248;2023-05-07T07:22:03;9.1;;;6.0;;
39294;SDS011;52361;52.100;5.248;2023-05-07T07:23:39;11.5;;;7.2;;
39294;SDS011;52361;52.100;5.248;2023-05-07T07:25:15;11.0;;;6.5;;
39294;SDS011;52361;52.100;5.248;2023-05-07T07:26:52;10.0;;;6.9;;
39294;SDS011;52361;52.100;5.248;2023-05-07T07:30:05;13.4;;;7.9;;
39294;SDS011;52361;52.100;5.248;2023-05-07T07:31:43;11.0;;;7.7;;
39294;SDS011;52361;52.100;5.248;2023-05-07T07:33:19;10.7;;;6.5;;
39294;SDS011;52361;52.100;5.248;2023-05-07T07:36:31;10.7;;;6.7;;
39294;SDS011;52361;52.100;5.248;2023-05-07T07:38:07;11.0;;;6.6;;
39294;SDS011;52361;52.100;5.248;2023-05-07T07:39:43;9.1;;;6.3;;
39294;SDS011;52361;52.100;5.248;2023-05-07T07:42:56;12.8;;;7.8;;
39294;SDS011;52361;52.100;5.248;2023-05-07T07:44:33;11.4;;;6.7;;
39294;SDS011;52361;52.100;5.248;2023-05-07T07:46:10;13.0;;;6.7;;
39294;SDS011;52361;52.100;5.248;2023-05-07T07:47:48;9.9;;;7.0;;
39294;SDS011;52361;52.100;5.248;2023-05-07T07:51:00;10.9;;;6.2;;
39294;SDS011;52361;52.100;5.248;2023-05-07T07:52:36;10.9;;;6.2;;
39294;SDS011;52361;52.100;5.248;2023-05-07T07:54:14;12.6;;;6.8;;
39294;SDS011;52361;52.100;5.248;2023-05-07T07:57:26;10.9;;;6.9;;
39294;SDS011;52361;52.100;5.248;2023-05-07T07:59:03;10.9;;;6.8;;
39294;SDS011;52361;52.100;5.248;2023-05-07T08:00:39;11.2;;;6.8;;
39294;SDS011;52361;52.100;5.248;2023-05-07T08:03:52;10.8;;;7.5;;
39294;SDS011;52361;52.100;5.248;2023-05-07T08:05:29;11.3;;;7.4;;
39294;SDS011;52361;52.100;5.248;2023-05-07T08:07:06;11.1;;;6.5;;
39294;SDS011;52361;52.100;5.248;2023-05-07T08:08:42;11.6;;;7.4;;
39294;SDS011;52361;52.100;5.248;2023-05-07T08:11:56;13.6;;;7.3;;
39294;SDS011;52361;52.100;5.248;2023-05-07T08:13:33;13.1;;;7.4;;
39294;SDS011;52361;52.100;5.248;2023-05-07T08:15:10;11.2;;;6.6;;
39294;SDS011;52361;52.100;5.248;2023-05-07T08:18:23;11.4;;;6.9;;
39294;SDS011;52361;52.100;5.248;2023-05-07T08:20:01;11.7;;;6.5;;
39294;SDS011;52361;52.100;5.248;2023-05-07T08:21:38;11.5;;;7.8;;
39294;SDS011;52361;52.100;5.248;2023-05-07T08:24:51;13.6;;;7.0;;
39294;SDS011;52361;52.100;5.248;2023-05-07T08:26:27;11.7;;;7.0;;
39294;SDS011;52361;52.100;5.248;2023-05-07T08:28:04;15.8;;;6.3;;
39294;SDS011;52361;52.100;5.248;2023-05-07T08:29:41;9.81;;;6.5;;
39294;SDS011;52361;52.100;5.248;2023-05-07T08:32:53;10.21;;;6.4;;
39294;SDS011;52361;52.100;5.248;2023-05-07T08:34:29;12.5;;;6.6;;
39294;SDS011;52361;52.100;5.248;2023-05-07T08:36:05;10.0;;;5.9;;
39294;SDS011;52361;52.100;5.248;2023-05-07T08:39:19;9.4;;;6.5;;
39294;SDS011;52361;52.100;5.248;2023-05-07T08:40:55;10.21;;;5.9;;
39294;SDS011;52361;52.100;5.248;2023-05-07T08:42:32;12.6;;;6.2;;
39294;SDS011;52361;52.100;5.248;2023-05-07T08:45:49;11.5;;;6.4;;
39294;SDS011;52361;52.100;5.248;2023-05-07T08:47:32;8.2;;;5.8;;
39294;SDS011;52361;52.100;5.248;2023-05-07T08:49:15;10.6;;;6.7;;
39294;SDS011;52361;52.100;5.248;2023-05-07T08:50:52;11.1;;;6.4;;
39294;SDS011;52361;52.100;5.248;2023-05-07T08:54:05;8.81;;;6.5;;
39294;SDS011;52361;52.100;5.248;2023-05-07T08:55:43;8.6;;;6.6;;
39294;SDS011;52361;52.100;5.248;2023-05-07T08:57:21;9.6;;;5.5;;
39294;SDS011;52361;52.100;5.248;2023-05-07T08:58:57;9.0;;;6.0;;
39294;SDS011;52361;52.100;5.248;2023-05-07T09:02:13;8.31;;;6.0;;
39294;SDS011;52361;52.100;5.248;2023-05-07T09:03:50;12.1;;;6.6;;
39294;SDS011;52361;52.100;5.248;2023-05-07T09:05:28;8.71;;;6.0;;
39294;SDS011;52361;52.100;5.248;2023-05-07T09:08:40;10.9;;;6.8;;
39294;SDS011;52361;52.100;5.248;2023-05-07T09:10:25;11.1;;;7.6;;
39294;SDS011;52361;52.100;5.248;2023-05-07T09:12:02;13.6;;;6.9;;
39294;SDS011;52361;52.100;5.248;2023-05-07T09:13:39;12.0;;;7.0;;
39294;SDS011;52361;52.100;5.248;2023-05-07T09:16:51;13.6;;;7.1;;
39294;SDS011;52361;52.100;5.248;2023-05-07T09:18:28;11.5;;;6.4;;
39294;SDS011;52361;52.100;5.248;2023-05-07T09:20:05;9.81;;;6.0;;
39294;SDS011;52361;52.100;5.248;2023-05-07T09:23:20;10.1;;;6.5;;
39294;SDS011;52361;52.100;5.248;2023-05-07T09:24:57;9.21;;;6.1;;
39294;SDS011;52361;52.100;5.248;2023-05-07T09:26:33;9.6;;;6.2;;
39294;SDS011;52361;52.100;5.248;2023-05-07T09:29:46;10.5;;;6.1;;
39294;SDS011;52361;52.100;5.248;2023-05-07T09:31:23;7.4;;;5.4;;
39294;SDS011;52361;52.100;5.248;2023-05-07T09:33:00;14.4;;;6.5;;
39294;SDS011;52361;52.100;5.248;2023-05-07T09:34:40;8.81;;;5.9;;
39294;SDS011;52361;52.100;5.248;2023-05-07T09:37:54;9.9;;;6.0;;
39294;SDS011;52361;52.100;5.248;2023-05-07T09:39:38;11.7;;;6.6;;
39294;SDS011;52361;52.100;5.248;2023-05-07T09:41:18;10.9;;;6.1;;
39294;SDS011;52361;52.100;5.248;2023-05-07T09:42:55;6.8;;;4.7;;
39294;SDS011;52361;52.100;5.248;2023-05-07T09:46:11;5.6;;;3.9;;
39294;SDS011;52361;52.100;5.248;2023-05-07T09:47:50;5.11;;;3.8;;
39294;SDS011;52361;52.100;5.248;2023-05-07T09:49:33;7.5;;;3.8;;
39294;SDS011;52361;52.100;5.248;2023-05-07T09:51:14;7.2;;;4.7;;
39294;SDS011;52361;52.100;5.248;2023-05-07T09:54:44;5.8;;;4.7;;
39294;SDS011;52361;52.100;5.248;2023-05-07T09:56:22;6.1;;;3.9;;
39294;SDS011;52361;52.100;5.248;2023-05-07T09:58:00;5.8;;;3.6;;
39294;SDS011;52361;52.100;5.248;2023-05-07T09:59:40;3.8;;;2.4;;
39294;SDS011;52361;52.100;5.248;2023-05-07T10:02:57;4.1;;;2.9;;
39294;SDS011;52361;52.100;5.248;2023-05-07T10:04:35;5.5;;;3.1;;
39294;SDS011;52361;52.100;5.248;2023-05-07T10:06:12;3.7;;;2.5;;
39294;SDS011;52361;52.100;5.248;2023-05-07T10:09:28;3.5;;;2.7;;
39294;SDS011;52361;52.100;5.248;2023-05-07T10:11:06;5.11;;;3.6;;
39294;SDS011;52361;52.100;5.248;2023-05-07T10:12:42;4.61;;;2.4;;
39294;SDS011;52361;52.100;5.248;2023-05-07T10:14:19;2.9;;;2.6;;
39294;SDS011;52361;52.100;5.248;2023-05-07T10:17:34;4.41;;;2.6;;
39294;SDS011;52361;52.100;5.248;2023-05-07T10:19:11;5.4;;;3.0;;
39294;SDS011;52361;52.100;5.248;2023-05-07T10:20:48;5.4;;;3.4;;
39294;SDS011;52361;52.100;5.248;2023-05-07T10:25:55;6.1;;;4.0;;
39294;SDS011;52361;52.100;5.248;2023-05-07T10:27:33;9.5;;;4.5;;
39294;SDS011;52361;52.100;5.248;2023-05-07T10:29:12;5.7;;;3.3;;
39294;SDS011;52361;52.100;5.248;2023-05-07T10:31:05;7.4;;;4.5;;
39294;SDS011;52361;52.100;5.248;2023-05-07T10:34:41;8.31;;;4.5;;
39294;SDS011;52361;52.100;5.248;2023-05-07T10:36:21;7.8;;;3.9;;
39294;SDS011;52361;52.100;5.248;2023-05-07T10:37:59;5.2;;;3.6;;
39294;SDS011;52361;52.100;5.248;2023-05-07T10:39:35;7.3;;;4.5;;
39294;SDS011;52361;52.100;5.248;2023-05-07T10:42:53;5.5;;;4.0;;
39294;SDS011;52361;52.100;5.248;2023-05-07T10:44:30;5.4;;;4.2;;
39294;SDS011;52361;52.100;5.248;2023-05-07T10:46:10;6.6;;;4.3;;
39294;SDS011;52361;52.100;5.248;2023-05-07T10:48:05;8.0;;;4.2;;
39294;SDS011;52361;52.100;5.248;2023-05-07T10:50:51;5.0;;;4.1;;
39294;SDS011;52361;52.100;5.248;2023-05-07T10:53:26;9.71;;;4.7;;
39294;SDS011;52361;52.100;5.248;2023-05-07T10:55:32;5.7;;;3.9;;
39294;SDS011;52361;52.100;5.248;2023-05-07T10:57:41;6.8;;;3.9;;
39294;SDS011;52361;52.100;5.248;2023-05-07T10:59:30;9.1;;;4.91;;
39294;SDS011;52361;52.100;5.248;2023-05-07T11:01:10;5.7;;;4.1;;
39294;SDS011;52361;52.100;5.248;2023-05-07T11:03:18;4.91;;;3.8;;
39294;SDS011;52361;52.100;5.248;2023-05-07T11:05:18;5.11;;;4.61;;
39294;SDS011;52361;52.100;5.248;2023-05-07T11:07:23;6.3;;;4.2;;
39294;SDS011;52361;52.100;5.248;2023-05-07T11:09:05;4.61;;;3.6;;
39294;SDS011;52361;52.100;5.248;2023-05-07T11:10:57;6.1;;;4.2;;
39294;SDS011;52361;52.100;5.248;2023-05-07T11:14:44;4.41;;;3.5;;
39294;SDS011;52361;52.100;5.248;2023-05-07T11:16:22;7.5;;;4.41;;
39294;SDS011;52361;52.100;5.248;2023-05-07T11:18:00;9.9;;;4.91;;
39294;SDS011;52361;52.100;5.248;2023-05-07T11:19:52;6.4;;;4.2;;
39294;SDS011;52361;52.100;5.248;2023-05-07T11:21:32;7.6;;;4.41;;
39294;SDS011;52361;52.100;5.248;2023-05-07T11:25:35;7.0;;;4.5;;
39294;SDS011;52361;52.100;5.248;2023-05-07T11:28:49;8.4;;;5.11;;
39294;SDS011;52361;52.100;5.248;2023-05-07T11:30:27;9.6;;;4.8;;
39294;SDS011;52361;52.100;5.248;2023-05-07T11:32:04;8.31;;;5.3;;
39294;SDS011;52361;52.100;5.248;2023-05-07T11:33:41;8.4;;;4.7;;
39294;SDS011;52361;52.100;5.248;2023-05-07T11:36:59;5.7;;;4.1;;
39294;SDS011;52361;52.100;5.248;2023-05-07T11:38:36;6.1;;;4.3;;
39294;SDS011;52361;52.100;5.248;2023-05-07T11:40:14;8.31;;;5.4;;
39294;SDS011;52361;52.100;5.248;2023-05-07T11:43:26;7.2;;;5.7;;
39294;SDS011;52361;52.100;5.248;2023-05-07T11:45:05;7.3;;;4.7;;
39294;SDS011;52361;52.100;5.248;2023-05-07T11:46:43;8.0;;;5.0;;
39294;SDS011;52361;52.100;5.248;2023-05-07T11:48:20;7.9;;;4.3;;
39294;SDS011;52361;52.100;5.248;2023-05-07T11:51:41;8.2;;;5.11;;
39294;SDS011;52361;52.100;5.248;2023-05-07T11:53:18;7.0;;;5.5;;
39294;SDS011;52361;52.100;5.248;2023-05-07T11:54:56;7.6;;;5.11;;
39294;SDS011;52361;52.100;5.248;2023-05-07T11:58:11;8.0;;;4.8;;
39294;SDS011;52361;52.100;5.248;2023-05-07T11:59:56;8.31;;;5.11;;
39294;SDS011;52361;52.100;5.248;2023-05-07T12:01:34;14.7;;;6.4;;
39294;SDS011;52361;52.100;5.248;2023-05-07T12:03:11;7.3;;;4.2;;
39294;SDS011;52361;52.100;5.248;2023-05-07T12:06:23;9.1;;;4.8;;
39294;SDS011;52361;52.100;5.248;2023-05-07T12:08:00;8.4;;;5.3;;
39294;SDS011;52361;52.100;5.248;2023-05-07T12:09:36;6.5;;;4.3;;
39294;SDS011;52361;52.100;5.248;2023-05-07T12:12:51;8.5;;;4.7;;
39294;SDS011;52361;52.100;5.248;2023-05-07T12:14:28;8.71;;;5.2;;
39294;SDS011;52361;52.100;5.248;2023-05-07T12:16:04;7.4;;;4.8;;
39294;SDS011;52361;52.100;5.248;2023-05-07T12:17:42;9.21;;;5.9;;
39294;SDS011;52361;52.100;5.248;2023-05-07T12:20:56;7.8;;;5.7;;
39294;SDS011;52361;52.100;5.248;2023-05-07T12:22:34;7.8;;;5.0;;
39294;SDS011;52361;52.100;5.248;2023-05-07T12:24:11;8.0;;;5.7;;
39294;SDS011;52361;52.100;5.248;2023-05-07T12:27:27;21.7;;;6.2;;
39294;SDS011;52361;52.100;5.248;2023-05-07T12:29:03;9.1;;;5.6;;
39294;SDS011;52361;52.100;5.248;2023-05-07T12:30:40;9.31;;;5.8;;
39294;SDS011;52361;52.100;5.248;2023-05-07T12:32:19;8.81;;;4.61;;
39294;SDS011;52361;52.100;5.248;2023-05-07T12:35:36;8.5;;;5.11;;
39294;SDS011;52361;52.100;5.248;2023-05-07T12:37:16;8.31;;;5.2;;
39294;SDS011;52361;52.100;5.248;2023-05-07T12:38:53;8.6;;;6.5;;
39294;SDS011;52361;52.100;5.248;2023-05-07T12:42:15;10.0;;;7.1;;
39294;SDS011;52361;52.100;5.248;2023-05-07T12:43:52;7.4;;;5.6;;
39294;SDS011;52361;52.100;5.248;2023-05-07T12:45:36;9.81;;;6.6;;
39294;SDS011;52361;52.100;5.248;2023-05-07T12:47:14;11.2;;;6.5;;
39294;SDS011;52361;52.100;5.248;2023-05-07T12:50:30;10.6;;;6.4;;
39294;SDS011;52361;52.100;5.248;2023-05-07T12:52:07;12.7;;;6.9;;
39294;SDS011;52361;52.100;5.248;2023-05-07T12:53:44;10.5;;;6.5;;
39294;SDS011;52361;52.100;5.248;2023-05-07T12:55:21;11.3;;;7.7;;